sensor_id;sensor_type;location;lat;lon;timestamp;temperature;humidity
68251;DHT22;55066;51.560;4.642;2024-03-22T00:01:52;11.07;99.99
68251;DHT22;55066;51.560;4.642;2024-03-22T00:04:17;11.06;99.99
68251;DHT22;55066;51.560;4.642;2024-03-22T00:06:44;11.13;99.99
68251;DHT22;55066;51.560;4.642;2024-03-22T00:09:10;11.14;99.99
68251;DHT22;55066;51.560;4.642;2024-03-22T00:11:36;11.14;99.99
68251;DHT22;55066;51.560;4.642;2024-03-22T00:14:02;11.13;99.99
68251;DHT22;55066;51.560;4.642;2024-03-22T00:16:28;11.16;99.99
68251;DHT22;55066;51.560;4.642;2024-03-22T00:18:53;11.13;99.99
68251;DHT22;55066;51.560;4.642;2024-03-22T00:21:19;11.13;99.99
68251;DHT22;55066;51.560;4.642;2024-03-22T00:23:45;11.17;99.99
68251;DHT22;55066;51.560;4.642;2024-03-22T00:26:11;11.09;99.99
68251;DHT22;55066;51.560;4.642;2024-03-22T00:28:36;11.12;99.99
68251;DHT22;55066;51.560;4.642;2024-03-22T00:31:02;11.09;99.99
68251;DHT22;55066;51.560;4.642;2024-03-22T00:33:27;11.09;99.99
68251;DHT22;55066;51.560;4.642;2024-03-22T00:35:53;11.03;99.99
68251;DHT22;55066;51.560;4.642;2024-03-22T00:38:19;11.02;99.99
68251;DHT22;55066;51.560;4.642;2024-03-22T00:40:45;11.00;99.99
68251;DHT22;55066;51.560;4.642;2024-03-22T00:43:11;10.96;99.99
68251;DHT22;55066;51.560;4.642;2024-03-22T00:45:36;10.92;99.99
68251;DHT22;55066;51.560;4.642;2024-03-22T00:48:02;10.92;99.99
68251;DHT22;55066;51.560;4.642;2024-03-22T00:50:28;10.83;99.99
68251;DHT22;55066;51.560;4.642;2024-03-22T00:52:54;10.79;99.99
68251;DHT22;55066;51.560;4.642;2024-03-22T00:55:22;10.83;99.99
68251;DHT22;55066;51.560;4.642;2024-03-22T00:57:47;10.93;99.99
68251;DHT22;55066;51.560;4.642;2024-03-22T01:00:13;10.92;99.99
68251;DHT22;55066;51.560;4.642;2024-03-22T01:02:39;10.86;99.99
68251;DHT22;55066;51.560;4.642;2024-03-22T01:05:05;10.92;99.99
68251;DHT22;55066;51.560;4.642;2024-03-22T01:07:31;10.97;99.99
68251;DHT22;55066;51.560;4.642;2024-03-22T01:09:56;11.06;99.99
68251;DHT22;55066;51.560;4.642;2024-03-22T01:12:22;11.04;99.99
68251;DHT22;55066;51.560;4.642;2024-03-22T01:14:48;10.95;99.99
68251;DHT22;55066;51.560;4.642;2024-03-22T01:17:13;10.99;99.99
68251;DHT22;55066;51.560;4.642;2024-03-22T01:19:39;10.95;99.99
68251;DHT22;55066;51.560;4.642;2024-03-22T01:22:06;11.03;99.99
68251;DHT22;55066;51.560;4.642;2024-03-22T01:24:33;11.12;99.99
68251;DHT22;55066;51.560;4.642;2024-03-22T01:26:58;11.19;99.99
68251;DHT22;55066;51.560;4.642;2024-03-22T01:29:25;11.09;99.99
68251;DHT22;55066;51.560;4.642;2024-03-22T01:31:52;11.04;99.99
68251;DHT22;55066;51.560;4.642;2024-03-22T01:34:18;11.09;99.99
68251;DHT22;55066;51.560;4.642;2024-03-22T01:36:43;10.96;99.99
68251;DHT22;55066;51.560;4.642;2024-03-22T01:39:09;10.93;99.99
68251;DHT22;55066;51.560;4.642;2024-03-22T01:41:34;10.95;99.99
68251;DHT22;55066;51.560;4.642;2024-03-22T01:44:00;10.96;99.99
68251;DHT22;55066;51.560;4.642;2024-03-22T01:46:28;10.99;99.99
68251;DHT22;55066;51.560;4.642;2024-03-22T01:48:53;10.82;99.99
68251;DHT22;55066;51.560;4.642;2024-03-22T01:51:19;10.93;99.99
68251;DHT22;55066;51.560;4.642;2024-03-22T01:53:44;10.93;99.99
68251;DHT22;55066;51.560;4.642;2024-03-22T01:56:10;10.99;99.99
68251;DHT22;55066;51.560;4.642;2024-03-22T01:58:36;11.00;99.99
68251;DHT22;55066;51.560;4.642;2024-03-22T02:01:02;10.99;99.99
68251;DHT22;55066;51.560;4.642;2024-03-22T02:03:27;11.06;99.99
68251;DHT22;55066;51.560;4.642;2024-03-22T02:05:52;10.99;99.99
68251;DHT22;55066;51.560;4.642;2024-03-22T02:08:19;10.96;99.99
68251;DHT22;55066;51.560;4.642;2024-03-22T02:10:44;10.88;99.99
68251;DHT22;55066;51.560;4.642;2024-03-22T02:13:11;10.86;99.99
68251;DHT22;55066;51.560;4.642;2024-03-22T02:15:36;10.82;99.99
68251;DHT22;55066;51.560;4.642;2024-03-22T02:18:02;10.79;99.99
68251;DHT22;55066;51.560;4.642;2024-03-22T02:20:27;10.78;99.99
68251;DHT22;55066;51.560;4.642;2024-03-22T02:22:52;10.73;99.99
68251;DHT22;55066;51.560;4.642;2024-03-22T02:25:18;10.62;99.99
68251;DHT22;55066;51.560;4.642;2024-03-22T02:27:43;10.61;99.99
68251;DHT22;55066;51.560;4.642;2024-03-22T02:30:09;10.57;99.99
68251;DHT22;55066;51.560;4.642;2024-03-22T02:32:34;10.51;99.99
68251;DHT22;55066;51.560;4.642;2024-03-22T02:35:00;10.42;99.99
68251;DHT22;55066;51.560;4.642;2024-03-22T02:37:25;10.30;99.99
68251;DHT22;55066;51.560;4.642;2024-03-22T02:39:51;10.25;99.99
68251;DHT22;55066;51.560;4.642;2024-03-22T02:42:16;10.28;99.99
68251;DHT22;55066;51.560;4.642;2024-03-22T02:44:42;10.25;99.99
68251;DHT22;55066;51.560;4.642;2024-03-22T02:47:09;10.18;99.99
68251;DHT22;55066;51.560;4.642;2024-03-22T02:49:35;10.14;99.99
68251;DHT22;55066;51.560;4.642;2024-03-22T02:52:00;10.09;99.99
68251;DHT22;55066;51.560;4.642;2024-03-22T02:54:26;10.14;99.99
68251;DHT22;55066;51.560;4.642;2024-03-22T02:56:51;10.21;99.99
68251;DHT22;55066;51.560;4.642;2024-03-22T02:59:17;10.30;99.99
68251;DHT22;55066;51.560;4.642;2024-03-22T03:01:43;10.28;99.99
68251;DHT22;55066;51.560;4.642;2024-03-22T03:04:08;10.27;99.99
68251;DHT22;55066;51.560;4.642;2024-03-22T03:06:34;10.22;99.99
68251;DHT22;55066;51.560;4.642;2024-03-22T03:08:59;10.31;99.99
68251;DHT22;55066;51.560;4.642;2024-03-22T03:11:26;10.33;99.99
68251;DHT22;55066;51.560;4.642;2024-03-22T03:13:52;10.31;99.99
68251;DHT22;55066;51.560;4.642;2024-03-22T03:16:19;10.40;99.99
68251;DHT22;55066;51.560;4.642;2024-03-22T03:18:44;10.37;99.99
68251;DHT22;55066;51.560;4.642;2024-03-22T03:21:10;10.30;99.99
68251;DHT22;55066;51.560;4.642;2024-03-22T03:23:35;10.37;99.99
68251;DHT22;55066;51.560;4.642;2024-03-22T03:26:01;10.37;99.99
68251;DHT22;55066;51.560;4.642;2024-03-22T03:28:26;10.30;99.99
68251;DHT22;55066;51.560;4.642;2024-03-22T03:30:53;10.18;99.99
68251;DHT22;55066;51.560;4.642;2024-03-22T03:33:18;10.20;99.99
68251;DHT22;55066;51.560;4.642;2024-03-22T03:35:47;10.11;99.99
68251;DHT22;55066;51.560;4.642;2024-03-22T03:38:12;10.10;99.99
68251;DHT22;55066;51.560;4.642;2024-03-22T03:40:38;10.16;99.99
68251;DHT22;55066;51.560;4.642;2024-03-22T03:43:03;10.07;99.99
68251;DHT22;55066;51.560;4.642;2024-03-22T03:45:29;10.09;99.99
68251;DHT22;55066;51.560;4.642;2024-03-22T03:47:54;10.06;99.99
68251;DHT22;55066;51.560;4.642;2024-03-22T03:50:20;10.10;99.99
68251;DHT22;55066;51.560;4.642;2024-03-22T03:52:45;10.02;99.99
68251;DHT22;55066;51.560;4.642;2024-03-22T03:55:11;10.00;99.99
68251;DHT22;55066;51.560;4.642;2024-03-22T03:57:36;9.96;99.99
68251;DHT22;55066;51.560;4.642;2024-03-22T04:00:02;9.87;99.99
68251;DHT22;55066;51.560;4.642;2024-03-22T04:02:28;9.85;99.99
68251;DHT22;55066;51.560;4.642;2024-03-22T04:04:53;9.89;99.99
68251;DHT22;55066;51.560;4.642;2024-03-22T04:07:20;9.89;99.99
68251;DHT22;55066;51.560;4.642;2024-03-22T04:09:46;9.86;99.99
68251;DHT22;55066;51.560;4.642;2024-03-22T04:12:11;9.90;99.99
68251;DHT22;55066;51.560;4.642;2024-03-22T04:14:37;9.90;99.99
68251;DHT22;55066;51.560;4.642;2024-03-22T04:17:02;9.81;99.99
68251;DHT22;55066;51.560;4.642;2024-03-22T04:19:28;9.76;99.99
68251;DHT22;55066;51.560;4.642;2024-03-22T04:21:54;9.87;99.99
68251;DHT22;55066;51.560;4.642;2024-03-22T04:24:19;9.87;99.99
68251;DHT22;55066;51.560;4.642;2024-03-22T04:26:44;9.82;99.99
68251;DHT22;55066;51.560;4.642;2024-03-22T04:29:10;9.82;99.99
68251;DHT22;55066;51.560;4.642;2024-03-22T04:31:35;9.86;99.99
68251;DHT22;55066;51.560;4.642;2024-03-22T04:34:02;9.81;99.99
68251;DHT22;55066;51.560;4.642;2024-03-22T04:36:28;9.73;99.99
68251;DHT22;55066;51.560;4.642;2024-03-22T04:38:53;9.75;99.99
68251;DHT22;55066;51.560;4.642;2024-03-22T04:41:19;9.68;99.99
68251;DHT22;55066;51.560;4.642;2024-03-22T04:43:44;9.72;99.99
68251;DHT22;55066;51.560;4.642;2024-03-22T04:46:09;9.73;99.99
68251;DHT22;55066;51.560;4.642;2024-03-22T04:48:35;9.75;99.99
68251;DHT22;55066;51.560;4.642;2024-03-22T04:51:01;9.81;99.99
68251;DHT22;55066;51.560;4.642;2024-03-22T04:53:28;9.81;99.99
68251;DHT22;55066;51.560;4.642;2024-03-22T04:55:53;9.76;99.99
68251;DHT22;55066;51.560;4.642;2024-03-22T04:58:20;9.82;99.99
68251;DHT22;55066;51.560;4.642;2024-03-22T05:00:48;9.93;99.99
68251;DHT22;55066;51.560;4.642;2024-03-22T05:03:15;9.99;99.99
68251;DHT22;55066;51.560;4.642;2024-03-22T05:05:41;9.94;99.99
68251;DHT22;55066;51.560;4.642;2024-03-22T05:08:07;9.97;99.99
68251;DHT22;55066;51.560;4.642;2024-03-22T05:10:33;9.96;99.99
68251;DHT22;55066;51.560;4.642;2024-03-22T05:12:59;9.94;99.99
68251;DHT22;55066;51.560;4.642;2024-03-22T05:15:25;9.94;99.99
68251;DHT22;55066;51.560;4.642;2024-03-22T05:17:55;9.94;99.99
68251;DHT22;55066;51.560;4.642;2024-03-22T05:20:21;10.03;99.99
68251;DHT22;55066;51.560;4.642;2024-03-22T05:22:48;10.00;99.99
68251;DHT22;55066;51.560;4.642;2024-03-22T05:25:13;9.97;99.99
68251;DHT22;55066;51.560;4.642;2024-03-22T05:27:41;9.96;99.99
68251;DHT22;55066;51.560;4.642;2024-03-22T05:30:10;9.93;99.99
68251;DHT22;55066;51.560;4.642;2024-03-22T05:32:36;9.94;99.99
68251;DHT22;55066;51.560;4.642;2024-03-22T05:35:02;9.96;99.99
68251;DHT22;55066;51.560;4.642;2024-03-22T05:37:28;10.04;99.99
68251;DHT22;55066;51.560;4.642;2024-03-22T05:39:54;10.07;99.99
68251;DHT22;55066;51.560;4.642;2024-03-22T05:42:19;9.96;99.99
68251;DHT22;55066;51.560;4.642;2024-03-22T05:44:45;9.96;99.99
68251;DHT22;55066;51.560;4.642;2024-03-22T05:47:11;9.96;99.99
68251;DHT22;55066;51.560;4.642;2024-03-22T05:49:36;9.92;99.99
68251;DHT22;55066;51.560;4.642;2024-03-22T05:52:02;9.86;99.99
68251;DHT22;55066;51.560;4.642;2024-03-22T05:54:27;9.86;99.99
68251;DHT22;55066;51.560;4.642;2024-03-22T05:56:53;9.93;99.99
68251;DHT22;55066;51.560;4.642;2024-03-22T05:59:19;9.82;99.99
68251;DHT22;55066;51.560;4.642;2024-03-22T06:01:45;9.82;99.99
68251;DHT22;55066;51.560;4.642;2024-03-22T06:04:10;9.85;99.99
68251;DHT22;55066;51.560;4.642;2024-03-22T06:06:36;9.93;99.99
68251;DHT22;55066;51.560;4.642;2024-03-22T06:09:05;9.97;99.99
68251;DHT22;55066;51.560;4.642;2024-03-22T06:11:35;10.04;99.99
68251;DHT22;55066;51.560;4.642;2024-03-22T06:14:00;9.99;99.99
68251;DHT22;55066;51.560;4.642;2024-03-22T06:16:26;10.04;99.99
68251;DHT22;55066;51.560;4.642;2024-03-22T06:18:52;10.03;99.99
68251;DHT22;55066;51.560;4.642;2024-03-22T06:21:17;10.03;99.99
68251;DHT22;55066;51.560;4.642;2024-03-22T06:23:50;10.09;99.99
68251;DHT22;55066;51.560;4.642;2024-03-22T06:26:15;10.06;99.99
68251;DHT22;55066;51.560;4.642;2024-03-22T06:28:41;10.10;99.99
68251;DHT22;55066;51.560;4.642;2024-03-22T06:31:08;10.21;99.99
68251;DHT22;55066;51.560;4.642;2024-03-22T06:33:33;10.28;99.99
68251;DHT22;55066;51.560;4.642;2024-03-22T06:36:00;10.34;99.99
68251;DHT22;55066;51.560;4.642;2024-03-22T06:38:26;10.38;99.99
68251;DHT22;55066;51.560;4.642;2024-03-22T06:40:51;10.42;99.99
68251;DHT22;55066;51.560;4.642;2024-03-22T06:43:17;10.44;99.99
68251;DHT22;55066;51.560;4.642;2024-03-22T06:45:42;10.45;99.99
68251;DHT22;55066;51.560;4.642;2024-03-22T06:48:08;10.44;99.99
68251;DHT22;55066;51.560;4.642;2024-03-22T06:50:33;10.44;99.99
68251;DHT22;55066;51.560;4.642;2024-03-22T06:52:59;10.41;99.99
68251;DHT22;55066;51.560;4.642;2024-03-22T06:55:24;10.44;99.99
68251;DHT22;55066;51.560;4.642;2024-03-22T06:57:50;10.52;99.99
68251;DHT22;55066;51.560;4.642;2024-03-22T07:00:17;10.58;99.99
68251;DHT22;55066;51.560;4.642;2024-03-22T07:02:45;10.59;99.99
68251;DHT22;55066;51.560;4.642;2024-03-22T07:05:11;10.64;99.99
68251;DHT22;55066;51.560;4.642;2024-03-22T07:07:38;10.68;99.99
68251;DHT22;55066;51.560;4.642;2024-03-22T07:10:04;10.72;99.99
68251;DHT22;55066;51.560;4.642;2024-03-22T07:12:33;10.82;99.99
68251;DHT22;55066;51.560;4.642;2024-03-22T07:15:02;10.86;99.99
68251;DHT22;55066;51.560;4.642;2024-03-22T07:17:28;10.89;99.99
68251;DHT22;55066;51.560;4.642;2024-03-22T07:19:54;10.96;99.99
68251;DHT22;55066;51.560;4.642;2024-03-22T07:22:20;11.12;99.99
68251;DHT22;55066;51.560;4.642;2024-03-22T07:24:46;11.26;99.99
68251;DHT22;55066;51.560;4.642;2024-03-22T07:27:13;11.33;99.99
68251;DHT22;55066;51.560;4.642;2024-03-22T07:29:40;11.33;99.99
68251;DHT22;55066;51.560;4.642;2024-03-22T07:32:06;11.33;99.99
68251;DHT22;55066;51.560;4.642;2024-03-22T07:34:31;11.31;99.99
68251;DHT22;55066;51.560;4.642;2024-03-22T07:36:57;11.27;99.99
68251;DHT22;55066;51.560;4.642;2024-03-22T07:39:22;11.23;99.99
68251;DHT22;55066;51.560;4.642;2024-03-22T07:41:48;11.27;99.99
68251;DHT22;55066;51.560;4.642;2024-03-22T07:44:14;11.40;99.99
68251;DHT22;55066;51.560;4.642;2024-03-22T07:46:41;11.44;99.99
68251;DHT22;55066;51.560;4.642;2024-03-22T07:49:06;11.31;99.99
68251;DHT22;55066;51.560;4.642;2024-03-22T07:51:32;11.48;99.99
68251;DHT22;55066;51.560;4.642;2024-03-22T07:53:57;11.55;99.99
68251;DHT22;55066;51.560;4.642;2024-03-22T07:56:22;11.62;99.99
68251;DHT22;55066;51.560;4.642;2024-03-22T07:58:48;11.60;99.99
68251;DHT22;55066;51.560;4.642;2024-03-22T08:01:13;11.64;99.99
68251;DHT22;55066;51.560;4.642;2024-03-22T08:03:39;11.62;99.99
68251;DHT22;55066;51.560;4.642;2024-03-22T08:06:05;11.60;99.99
68251;DHT22;55066;51.560;4.642;2024-03-22T08:08:31;11.51;99.99
68251;DHT22;55066;51.560;4.642;2024-03-22T08:10:57;11.57;99.99
68251;DHT22;55066;51.560;4.642;2024-03-22T08:13:22;11.60;99.99
68251;DHT22;55066;51.560;4.642;2024-03-22T08:15:48;11.58;99.99
68251;DHT22;55066;51.560;4.642;2024-03-22T08:18:13;11.71;99.99
68251;DHT22;55066;51.560;4.642;2024-03-22T08:20:39;11.83;99.99
68251;DHT22;55066;51.560;4.642;2024-03-22T08:23:05;11.93;99.99
68251;DHT22;55066;51.560;4.642;2024-03-22T08:25:32;11.88;99.99
68251;DHT22;55066;51.560;4.642;2024-03-22T08:27:58;11.93;99.99
68251;DHT22;55066;51.560;4.642;2024-03-22T08:30:24;11.92;99.99
68251;DHT22;55066;51.560;4.642;2024-03-22T08:32:52;11.92;99.99
68251;DHT22;55066;51.560;4.642;2024-03-22T08:35:19;11.81;99.99
68251;DHT22;55066;51.560;4.642;2024-03-22T08:37:44;11.77;99.99
68251;DHT22;55066;51.560;4.642;2024-03-22T08:40:11;11.79;99.99
68251;DHT22;55066;51.560;4.642;2024-03-22T08:42:36;11.81;99.99
68251;DHT22;55066;51.560;4.642;2024-03-22T08:45:02;11.75;99.99
68251;DHT22;55066;51.560;4.642;2024-03-22T08:47:29;11.83;99.99
68251;DHT22;55066;51.560;4.642;2024-03-22T08:49:55;11.79;99.99
68251;DHT22;55066;51.560;4.642;2024-03-22T08:52:23;11.79;99.99
68251;DHT22;55066;51.560;4.642;2024-03-22T08:54:50;11.65;99.99
68251;DHT22;55066;51.560;4.642;2024-03-22T08:57:16;11.82;99.99
68251;DHT22;55066;51.560;4.642;2024-03-22T08:59:41;11.81;99.99
68251;DHT22;55066;51.560;4.642;2024-03-22T09:02:07;11.72;99.99
68251;DHT22;55066;51.560;4.642;2024-03-22T09:04:32;11.86;99.99
68251;DHT22;55066;51.560;4.642;2024-03-22T09:06:58;11.81;99.99
68251;DHT22;55066;51.560;4.642;2024-03-22T09:09:23;11.86;99.99
68251;DHT22;55066;51.560;4.642;2024-03-22T09:11:52;11.90;99.99
68251;DHT22;55066;51.560;4.642;2024-03-22T09:14:17;11.90;99.99
68251;DHT22;55066;51.560;4.642;2024-03-22T09:16:43;11.85;99.99
68251;DHT22;55066;51.560;4.642;2024-03-22T09:19:08;11.83;99.99
68251;DHT22;55066;51.560;4.642;2024-03-22T09:21:37;11.85;99.99
68251;DHT22;55066;51.560;4.642;2024-03-22T09:24:02;11.86;99.99
68251;DHT22;55066;51.560;4.642;2024-03-22T09:26:32;11.75;99.99
68251;DHT22;55066;51.560;4.642;2024-03-22T09:28:58;11.81;99.99
68251;DHT22;55066;51.560;4.642;2024-03-22T09:31:24;11.71;99.99
68251;DHT22;55066;51.560;4.642;2024-03-22T09:33:49;11.75;99.99
68251;DHT22;55066;51.560;4.642;2024-03-22T09:36:15;11.82;99.99
68251;DHT22;55066;51.560;4.642;2024-03-22T09:38:41;11.78;99.99
68251;DHT22;55066;51.560;4.642;2024-03-22T09:41:07;11.77;99.99
68251;DHT22;55066;51.560;4.642;2024-03-22T09:43:34;11.75;99.99
68251;DHT22;55066;51.560;4.642;2024-03-22T09:46:01;11.74;99.99
68251;DHT22;55066;51.560;4.642;2024-03-22T09:48:28;11.81;99.99
68251;DHT22;55066;51.560;4.642;2024-03-22T09:50:54;11.77;99.99
68251;DHT22;55066;51.560;4.642;2024-03-22T09:53:21;11.64;99.99
68251;DHT22;55066;51.560;4.642;2024-03-22T09:55:49;11.51;99.99
68251;DHT22;55066;51.560;4.642;2024-03-22T09:58:15;11.50;99.99
68251;DHT22;55066;51.560;4.642;2024-03-22T10:00:44;11.61;99.99
68251;DHT22;55066;51.560;4.642;2024-03-22T10:03:12;11.57;99.99
68251;DHT22;55066;51.560;4.642;2024-03-22T10:05:39;11.61;99.99
68251;DHT22;55066;51.560;4.642;2024-03-22T10:08:04;11.40;99.99
68251;DHT22;55066;51.560;4.642;2024-03-22T10:10:33;11.33;99.99
68251;DHT22;55066;51.560;4.642;2024-03-22T10:13:03;11.23;99.99
68251;DHT22;55066;51.560;4.642;2024-03-22T10:15:30;10.95;99.99
68251;DHT22;55066;51.560;4.642;2024-03-22T10:17:57;10.91;99.99
68251;DHT22;55066;51.560;4.642;2024-03-22T10:20:22;10.95;99.99
68251;DHT22;55066;51.560;4.642;2024-03-22T10:23:08;10.88;99.99
68251;DHT22;55066;51.560;4.642;2024-03-22T10:25:34;10.80;99.99
68251;DHT22;55066;51.560;4.642;2024-03-22T10:28:01;10.85;99.99
68251;DHT22;55066;51.560;4.642;2024-03-22T10:30:27;10.75;99.99
68251;DHT22;55066;51.560;4.642;2024-03-22T10:32:53;10.78;99.99
68251;DHT22;55066;51.560;4.642;2024-03-22T10:35:18;10.82;99.99
68251;DHT22;55066;51.560;4.642;2024-03-22T10:37:44;10.69;99.99
68251;DHT22;55066;51.560;4.642;2024-03-22T10:40:10;10.68;99.99
68251;DHT22;55066;51.560;4.642;2024-03-22T10:42:41;10.69;99.99
68251;DHT22;55066;51.560;4.642;2024-03-22T10:45:09;10.71;99.99
68251;DHT22;55066;51.560;4.642;2024-03-22T10:47:35;10.83;99.99
68251;DHT22;55066;51.560;4.642;2024-03-22T10:52:34;10.71;99.99
68251;DHT22;55066;51.560;4.642;2024-03-22T10:55:01;10.80;99.99
68251;DHT22;55066;51.560;4.642;2024-03-22T10:57:28;10.85;99.99
68251;DHT22;55066;51.560;4.642;2024-03-22T10:59:55;10.89;99.99
68251;DHT22;55066;51.560;4.642;2024-03-22T11:02:23;10.80;99.99
68251;DHT22;55066;51.560;4.642;2024-03-22T11:04:58;10.71;99.99
68251;DHT22;55066;51.560;4.642;2024-03-22T11:07:29;10.64;99.99
68251;DHT22;55066;51.560;4.642;2024-03-22T11:10:00;10.69;99.99
68251;DHT22;55066;51.560;4.642;2024-03-22T11:12:25;10.68;99.99
68251;DHT22;55066;51.560;4.642;2024-03-22T11:14:53;10.73;99.99
68251;DHT22;55066;51.560;4.642;2024-03-22T11:17:19;10.78;99.99
68251;DHT22;55066;51.560;4.642;2024-03-22T11:19:46;10.71;99.99
68251;DHT22;55066;51.560;4.642;2024-03-22T11:22:13;10.78;99.99
68251;DHT22;55066;51.560;4.642;2024-03-22T11:24:39;10.73;99.99
68251;DHT22;55066;51.560;4.642;2024-03-22T11:27:05;10.76;99.99
68251;DHT22;55066;51.560;4.642;2024-03-22T11:29:31;10.75;99.99
68251;DHT22;55066;51.560;4.642;2024-03-22T11:31:56;10.75;99.99
68251;DHT22;55066;51.560;4.642;2024-03-22T11:34:21;10.79;99.99
68251;DHT22;55066;51.560;4.642;2024-03-22T11:36:47;10.88;99.99
68251;DHT22;55066;51.560;4.642;2024-03-22T11:39:15;10.91;99.99
68251;DHT22;55066;51.560;4.642;2024-03-22T11:41:41;10.99;99.99
68251;DHT22;55066;51.560;4.642;2024-03-22T11:44:06;10.99;99.99
68251;DHT22;55066;51.560;4.642;2024-03-22T11:46:32;10.97;99.99
68251;DHT22;55066;51.560;4.642;2024-03-22T11:48:58;10.91;99.99
68251;DHT22;55066;51.560;4.642;2024-03-22T11:51:24;10.92;99.99
68251;DHT22;55066;51.560;4.642;2024-03-22T11:53:53;10.97;99.99
68251;DHT22;55066;51.560;4.642;2024-03-22T11:56:21;11.02;99.99
68251;DHT22;55066;51.560;4.642;2024-03-22T11:58:48;11.06;99.99
68251;DHT22;55066;51.560;4.642;2024-03-22T12:01:15;11.04;99.99
68251;DHT22;55066;51.560;4.642;2024-03-22T12:03:43;10.97;99.99
68251;DHT22;55066;51.560;4.642;2024-03-22T12:06:10;10.97;99.99
68251;DHT22;55066;51.560;4.642;2024-03-22T12:08:37;11.04;99.99
68251;DHT22;55066;51.560;4.642;2024-03-22T12:11:03;11.13;99.99
68251;DHT22;55066;51.560;4.642;2024-03-22T12:13:29;11.10;99.99
68251;DHT22;55066;51.560;4.642;2024-03-22T12:15:55;11.16;99.99
68251;DHT22;55066;51.560;4.642;2024-03-22T12:18:21;11.07;99.99
68251;DHT22;55066;51.560;4.642;2024-03-22T12:20:46;11.03;99.99
68251;DHT22;55066;51.560;4.642;2024-03-22T12:23:11;11.03;99.99
68251;DHT22;55066;51.560;4.642;2024-03-22T12:25:37;11.06;99.99
68251;DHT22;55066;51.560;4.642;2024-03-22T12:28:03;11.06;99.99
68251;DHT22;55066;51.560;4.642;2024-03-22T12:30:28;10.99;99.99
68251;DHT22;55066;51.560;4.642;2024-03-22T12:32:54;10.85;99.99
68251;DHT22;55066;51.560;4.642;2024-03-22T12:35:19;10.92;99.99
68251;DHT22;55066;51.560;4.642;2024-03-22T12:37:44;10.99;99.99
68251;DHT22;55066;51.560;4.642;2024-03-22T12:40:10;10.96;99.99
68251;DHT22;55066;51.560;4.642;2024-03-22T12:42:37;11.04;99.99
68251;DHT22;55066;51.560;4.642;2024-03-22T12:45:02;11.06;99.99
68251;DHT22;55066;51.560;4.642;2024-03-22T12:47:29;11.09;99.99
68251;DHT22;55066;51.560;4.642;2024-03-22T12:49:54;11.10;99.99
68251;DHT22;55066;51.560;4.642;2024-03-22T12:52:20;11.16;99.99
68251;DHT22;55066;51.560;4.642;2024-03-22T12:54:46;11.09;99.99
68251;DHT22;55066;51.560;4.642;2024-03-22T12:57:11;11.07;99.99
68251;DHT22;55066;51.560;4.642;2024-03-22T12:59:37;10.99;99.99
68251;DHT22;55066;51.560;4.642;2024-03-22T13:02:03;10.92;99.99
68251;DHT22;55066;51.560;4.642;2024-03-22T13:04:30;10.91;99.99
68251;DHT22;55066;51.560;4.642;2024-03-22T13:06:55;10.88;99.99
68251;DHT22;55066;51.560;4.642;2024-03-22T13:09:21;10.89;99.99
68251;DHT22;55066;51.560;4.642;2024-03-22T13:11:47;10.93;99.99
68251;DHT22;55066;51.560;4.642;2024-03-22T13:14:16;10.99;99.99
68251;DHT22;55066;51.560;4.642;2024-03-22T13:16:41;10.95;99.99
68251;DHT22;55066;51.560;4.642;2024-03-22T13:19:09;10.95;99.99
68251;DHT22;55066;51.560;4.642;2024-03-22T13:21:38;10.97;99.99
68251;DHT22;55066;51.560;4.642;2024-03-22T13:24:03;10.85;99.99
68251;DHT22;55066;51.560;4.642;2024-03-22T13:26:29;10.89;99.99
68251;DHT22;55066;51.560;4.642;2024-03-22T13:28:54;10.92;99.99
68251;DHT22;55066;51.560;4.642;2024-03-22T13:31:21;10.97;99.99
68251;DHT22;55066;51.560;4.642;2024-03-22T13:33:46;10.97;99.99
68251;DHT22;55066;51.560;4.642;2024-03-22T13:36:13;11.02;99.99
68251;DHT22;55066;51.560;4.642;2024-03-22T13:38:38;10.99;99.99
68251;DHT22;55066;51.560;4.642;2024-03-22T13:41:04;11.03;99.99
68251;DHT22;55066;51.560;4.642;2024-03-22T13:43:31;11.00;99.99
68251;DHT22;55066;51.560;4.642;2024-03-22T13:45:57;11.06;99.99
68251;DHT22;55066;51.560;4.642;2024-03-22T13:48:24;11.09;99.99
68251;DHT22;55066;51.560;4.642;2024-03-22T13:50:59;11.12;99.99
68251;DHT22;55066;51.560;4.642;2024-03-22T13:53:24;10.97;99.99
68251;DHT22;55066;51.560;4.642;2024-03-22T13:55:51;10.93;99.99
68251;DHT22;55066;51.560;4.642;2024-03-22T13:58:18;10.91;99.99
68251;DHT22;55066;51.560;4.642;2024-03-22T14:00:43;10.82;99.99
68251;DHT22;55066;51.560;4.642;2024-03-22T14:03:09;10.85;99.99
68251;DHT22;55066;51.560;4.642;2024-03-22T14:05:35;10.76;99.99
68251;DHT22;55066;51.560;4.642;2024-03-22T14:08:00;10.75;99.99
68251;DHT22;55066;51.560;4.642;2024-03-22T14:10:26;10.66;99.99
68251;DHT22;55066;51.560;4.642;2024-03-22T14:12:57;10.66;99.99
68251;DHT22;55066;51.560;4.642;2024-03-22T14:15:23;10.78;99.99
68251;DHT22;55066;51.560;4.642;2024-03-22T14:17:51;10.75;99.99
68251;DHT22;55066;51.560;4.642;2024-03-22T14:20:16;10.80;99.99
68251;DHT22;55066;51.560;4.642;2024-03-22T14:22:42;10.82;99.99
68251;DHT22;55066;51.560;4.642;2024-03-22T14:25:08;10.80;99.99
68251;DHT22;55066;51.560;4.642;2024-03-22T14:27:38;10.95;99.99
68251;DHT22;55066;51.560;4.642;2024-03-22T14:30:05;10.89;99.99
68251;DHT22;55066;51.560;4.642;2024-03-22T14:32:35;10.76;99.99
68251;DHT22;55066;51.560;4.642;2024-03-22T14:35:00;10.68;99.99
68251;DHT22;55066;51.560;4.642;2024-03-22T14:37:26;10.65;99.99
68251;DHT22;55066;51.560;4.642;2024-03-22T14:39:52;10.55;99.99
68251;DHT22;55066;51.560;4.642;2024-03-22T14:42:17;10.44;99.99
68251;DHT22;55066;51.560;4.642;2024-03-22T14:44:43;10.33;99.99
68251;DHT22;55066;51.560;4.642;2024-03-22T14:47:08;10.40;99.99
68251;DHT22;55066;51.560;4.642;2024-03-22T14:49:33;10.48;99.99
68251;DHT22;55066;51.560;4.642;2024-03-22T14:51:59;10.64;99.99
68251;DHT22;55066;51.560;4.642;2024-03-22T14:54:25;10.72;99.99
68251;DHT22;55066;51.560;4.642;2024-03-22T14:56:51;10.79;99.99
68251;DHT22;55066;51.560;4.642;2024-03-22T14:59:20;10.71;99.99
68251;DHT22;55066;51.560;4.642;2024-03-22T15:01:45;10.59;99.99
68251;DHT22;55066;51.560;4.642;2024-03-22T15:04:11;10.47;99.99
68251;DHT22;55066;51.560;4.642;2024-03-22T15:06:38;10.40;99.99
68251;DHT22;55066;51.560;4.642;2024-03-22T15:09:04;10.33;99.99
68251;DHT22;55066;51.560;4.642;2024-03-22T15:11:35;10.34;99.99
68251;DHT22;55066;51.560;4.642;2024-03-22T15:14:01;10.45;99.99
68251;DHT22;55066;51.560;4.642;2024-03-22T15:16:28;10.45;99.99
68251;DHT22;55066;51.560;4.642;2024-03-22T15:18:54;10.28;99.99
68251;DHT22;55066;51.560;4.642;2024-03-22T15:21:19;10.41;99.99
68251;DHT22;55066;51.560;4.642;2024-03-22T15:23:48;10.25;99.99
68251;DHT22;55066;51.560;4.642;2024-03-22T15:26:14;10.17;99.99
68251;DHT22;55066;51.560;4.642;2024-03-22T15:28:39;10.21;99.99